KALS/ALS METAR and TAF weather

Enter ICAO airport designator
Station Type Date Time Source
KALS METAR 2019/08/22 01:52 UTC NOAA

KALS 220152Z AUTO 11004KT 10SM CLR 15/06 A3029 RMK AO2 SLP185 T01500056


Station Type Date Time Source
KALS Decoded METAR 2019/08/22 01:52 UTC NOAA

Station name not available
Aug 21, 2019 - 09:52 PM EDT / 2019.08.22 0152 UTC
Wind: from the ESE (110 degrees) at 5 MPH (4 KT):0
Visibility: 10 mile(s):0
Sky conditions: clear
Temperature: 59.0 F (15.0 C)
Dew Point: 42.1 F (5.6 C)
Relative Humidity: 53%
Pressure (altimeter): 30.29 in. Hg (1025 hPa)
ob: KALS 220152Z AUTO 11004KT 10SM CLR 15/06 A3029 RMK AO2 SLP185 T01500056
cycle: 2

Station Type Date Time Source
KALS TAF 2019/08/21 22:16 UTC NOAA

TAF
AMD KALS 212213Z 2122/2218 26012KT P6SM VCTS SCT080CB BKN120
TEMPO 2122/2201 VRB18G32KT P6SM BKN080CB
FM220200 10007KT P6SM SCT120
FM220700 VRB04KT P6SM FEW150

Example: see airport list